createdAt,value
2023-01-23T00:00:20.265Z,101818.56
2023-01-23T00:02:47.110Z,101810.06
2023-01-23T00:05:13.841Z,101817.31
2023-01-23T00:07:40.547Z,101815.44
2023-01-23T00:10:07.346Z,101814.81
2023-01-23T00:12:34.023Z,101814.50
2023-01-23T00:15:00.686Z,101819.53
2023-01-23T00:17:27.575Z,101812.28
2023-01-23T00:19:55.008Z,101814.06
2023-01-23T00:22:22.130Z,101809.56
2023-01-23T00:24:48.764Z,101811.22
2023-01-23T00:27:15.441Z,101800.69
2023-01-23T00:29:42.060Z,101800.16
2023-01-23T00:32:08.731Z,101795.03
2023-01-23T00:34:35.471Z,101793.34
2023-01-23T00:37:02.091Z,101798.47
2023-01-23T00:39:28.737Z,101805.75
2023-01-23T00:41:55.448Z,101811.22
2023-01-23T00:44:23.822Z,101810.94
2023-01-23T00:46:50.545Z,101797.53
2023-01-23T00:49:17.948Z,101810.25
2023-01-23T00:51:44.968Z,101806.19
2023-01-23T00:54:11.810Z,101805.09
2023-01-23T00:56:41.131Z,101795.09
2023-01-23T00:59:07.734Z,101808.50
2023-01-23T01:01:34.687Z,101805.19
2023-01-23T01:04:01.411Z,101801.13
2023-01-23T01:06:29.920Z,101806.69
2023-01-23T01:08:58.712Z,101810.50
2023-01-23T01:11:25.723Z,101805.34
2023-01-23T01:13:52.708Z,101801.13
2023-01-23T01:16:19.493Z,101809.19
2023-01-23T01:18:47.283Z,101808.50
2023-01-23T01:21:14.901Z,101803.63
2023-01-23T01:23:42.886Z,101819.34
2023-01-23T01:26:13.080Z,101804.66
2023-01-23T01:28:40.335Z,101809.44
2023-01-23T01:31:11.702Z,101790.25
2023-01-23T01:33:39.310Z,101812.66
2023-01-23T01:36:13.373Z,101813.69
2023-01-23T01:38:40.432Z,101810.56
2023-01-23T01:41:07.340Z,101816.97
2023-01-23T01:43:35.276Z,101818.63
2023-01-23T01:46:05.750Z,101827.44
2023-01-23T01:48:50.944Z,101820.75
2023-01-23T01:51:17.615Z,101821.78
2023-01-23T01:53:46.680Z,101821.53
2023-01-23T01:56:14.453Z,101821.97
2023-01-23T01:58:42.584Z,101811.81
2023-01-23T02:01:09.422Z,101815.00
2023-01-23T02:03:36.303Z,101816.06
2023-01-23T02:06:03.237Z,101833.25
2023-01-23T02:08:36.074Z,101836.56
2023-01-23T02:11:03.636Z,101824.41
2023-01-23T02:13:38.825Z,101823.84
2023-01-23T02:16:10.188Z,101826.00
2023-01-23T02:18:41.491Z,101823.94
2023-01-23T02:21:08.628Z,101816.06
2023-01-23T02:23:43.189Z,101815.31
2023-01-23T02:26:22.160Z,101815.94
2023-01-23T02:28:51.715Z,101809.69
2023-01-23T02:31:20.846Z,101814.78
2023-01-23T02:33:52.684Z,101818.50
2023-01-23T02:36:21.181Z,101819.81
2023-01-23T02:38:58.400Z,101815.81
2023-01-23T02:41:30.197Z,101812.50
2023-01-23T02:43:59.926Z,101808.56
2023-01-23T02:46:26.885Z,101807.56
2023-01-23T02:48:54.251Z,101801.38
2023-01-23T02:51:22.038Z,101809.63
2023-01-23T02:53:48.940Z,101811.00
2023-01-23T02:56:17.912Z,101812.25
2023-01-23T02:59:03.253Z,101803.75
2023-01-23T03:01:29.994Z,101803.63
2023-01-23T03:03:56.662Z,101813.00
2023-01-23T03:06:23.761Z,101809.16
2023-01-23T03:08:50.810Z,101818.03
2023-01-23T03:11:18.614Z,101813.75
2023-01-23T03:13:46.240Z,101814.22
2023-01-23T03:16:13.531Z,101810.47
2023-01-23T03:18:53.446Z,101808.78
2023-01-23T03:21:21.318Z,101807.94
2023-01-23T03:23:48.432Z,101805.13
2023-01-23T03:26:15.703Z,101803.44
2023-01-23T03:29:01.981Z,101807.00
2023-01-23T03:31:28.760Z,101810.28
2023-01-23T03:33:55.534Z,101808.97
2023-01-23T03:36:23.085Z,101808.59
2023-01-23T03:39:08.400Z,101808.03
2023-01-23T03:41:36.696Z,101807.66
2023-01-23T03:44:04.103Z,101804.28
2023-01-23T03:46:31.522Z,101804.56
2023-01-23T03:48:59.038Z,101804.44
2023-01-23T03:51:25.885Z,101799.31
2023-01-23T03:53:53.494Z,101802.97
2023-01-23T03:56:20.129Z,101803.63
2023-01-23T03:58:46.852Z,101797.44
2023-01-23T04:01:13.946Z,101799.69
2023-01-23T04:03:43.002Z,101800.25
2023-01-23T04:06:09.949Z,101795.19
2023-01-23T04:08:37.276Z,101800.72
2023-01-23T04:11:09.198Z,101797.06
2023-01-23T04:13:36.131Z,101790.53
2023-01-23T04:16:03.279Z,101788.44
2023-01-23T04:18:30.228Z,101793.91
2023-01-23T04:20:57.355Z,101801.47
2023-01-23T04:23:24.399Z,101799.88
2023-01-23T04:25:52.400Z,101800.91
2023-01-23T04:28:19.718Z,101792.03
2023-01-23T04:30:49.619Z,101791.63
2023-01-23T04:33:23.137Z,101789.75
2023-01-23T04:35:57.890Z,101785.06
2023-01-23T04:38:26.988Z,101790.78
2023-01-23T04:40:53.669Z,101787.03
2023-01-23T04:43:20.720Z,101788.34
2023-01-23T04:45:51.501Z,101788.81
2023-01-23T04:48:40.404Z,101797.44
2023-01-23T04:51:08.454Z,101788.34
2023-01-23T04:53:35.454Z,101793.38
2023-01-23T04:56:03.030Z,101795.63
2023-01-23T04:58:30.215Z,101798.97
2023-01-23T05:01:04.403Z,101806.81
2023-01-23T05:03:34.871Z,101806.69
2023-01-23T05:06:01.581Z,101811.84
2023-01-23T05:08:28.285Z,101810.09
2023-01-23T05:11:10.053Z,101810.88
2023-01-23T05:13:36.742Z,101816.53
2023-01-23T05:16:03.501Z,101811.47
2023-01-23T05:18:40.617Z,101825.16
2023-01-23T05:21:07.327Z,101819.06
2023-01-23T05:23:33.973Z,101817.47
2023-01-23T05:26:00.715Z,101814.16
2023-01-23T05:28:28.474Z,101801.41
2023-01-23T05:30:56.132Z,101812.69
2023-01-23T05:33:33.689Z,101807.16
2023-01-23T05:36:01.298Z,101808.88
2023-01-23T05:38:28.363Z,101814.22
2023-01-23T05:40:55.090Z,101801.06
2023-01-23T05:43:41.801Z,101795.25
2023-01-23T05:46:28.795Z,101797.50
2023-01-23T05:48:56.575Z,101799.88
2023-01-23T05:51:23.919Z,101802.69
2023-01-23T05:53:52.446Z,101788.84
2023-01-23T05:56:19.381Z,101803.38
2023-01-23T05:59:15.439Z,101795.47
2023-01-23T06:01:47.804Z,101791.53
2023-01-23T06:04:32.966Z,101798.84
2023-01-23T06:07:20.506Z,101798.88
2023-01-23T06:09:51.334Z,101798.00
2023-01-23T06:12:18.065Z,101806.25
2023-01-23T06:14:44.714Z,101801.47
2023-01-23T06:17:15.413Z,101791.41
2023-01-23T06:19:42.850Z,101790.97
2023-01-23T06:22:10.564Z,101793.13
2023-01-23T06:24:55.281Z,101795.75
2023-01-23T06:27:21.932Z,101789.94
2023-01-23T06:29:48.704Z,101785.63
2023-01-23T06:32:15.525Z,101775.91
2023-01-23T06:34:43.101Z,101772.34
2023-01-23T06:37:10.539Z,101782.91
2023-01-23T06:39:37.738Z,101768.31
2023-01-23T06:42:09.850Z,101773.00
2023-01-23T06:44:39.918Z,101778.25
2023-01-23T06:47:06.735Z,101778.50
2023-01-23T06:49:33.520Z,101776.84
2023-01-23T06:52:00.293Z,101773.59
2023-01-23T06:54:27.117Z,101775.72
2023-01-23T06:56:59.574Z,101775.53
2023-01-23T06:59:26.243Z,101767.75
2023-01-23T07:01:53.232Z,101769.25
2023-01-23T07:04:24.310Z,101769.16
2023-01-23T07:06:51.931Z,101762.81
2023-01-23T07:09:19.865Z,101766.72
2023-01-23T07:11:56.210Z,101769.06
2023-01-23T07:14:23.050Z,101763.81
2023-01-23T07:16:53.840Z,101766.16
2023-01-23T07:19:20.543Z,101772.63
2023-01-23T07:21:50.362Z,101766.91
2023-01-23T07:24:17.050Z,101781.16
2023-01-23T07:26:43.753Z,101776.06
2023-01-23T07:29:10.530Z,101773.56
2023-01-23T07:31:37.315Z,101776.44
2023-01-23T07:34:03.992Z,101776.72
2023-01-23T07:36:30.681Z,101767.81
2023-01-23T07:38:59.077Z,101773.06
2023-01-23T07:41:25.978Z,101769.41
2023-01-23T07:43:52.598Z,101767.91
2023-01-23T07:46:19.283Z,101774.13
2023-01-23T07:48:45.967Z,101769.25
2023-01-23T07:51:13.353Z,101773.03
2023-01-23T07:53:40.002Z,101770.78
2023-01-23T07:56:06.907Z,101770.59
2023-01-23T07:58:33.565Z,101772.94
2023-01-23T08:01:00.424Z,101770.53
2023-01-23T08:03:29.160Z,101768.88
2023-01-23T08:05:55.842Z,101763.69
2023-01-23T08:08:22.498Z,101771.34
2023-01-23T08:10:49.110Z,101763.78
2023-01-23T08:13:15.870Z,101767.44
2023-01-23T08:15:42.502Z,101763.63
2023-01-23T08:18:09.159Z,101768.88
2023-01-23T08:20:35.778Z,101760.66
2023-01-23T08:23:02.668Z,101762.44
2023-01-23T08:25:29.670Z,101762.44
2023-01-23T08:27:56.726Z,101770.94
2023-01-23T08:30:23.340Z,101776.41
2023-01-23T08:32:50.007Z,101781.47
2023-01-23T08:35:17.701Z,101780.84
2023-01-23T08:37:44.549Z,101783.88
2023-01-23T08:40:11.551Z,101783.03
2023-01-23T08:42:38.220Z,101776.91
2023-01-23T08:45:05.027Z,101788.91
2023-01-23T08:47:36.613Z,101788.41
2023-01-23T08:50:04.574Z,101793.16
2023-01-23T08:52:31.683Z,101795.78
2023-01-23T08:54:58.398Z,101791.03
2023-01-23T08:57:25.043Z,101793.69
2023-01-23T08:59:51.744Z,101794.78
2023-01-23T09:02:18.457Z,101790.38
2023-01-23T09:04:45.139Z,101799.44
2023-01-23T09:07:11.750Z,101801.22
2023-01-23T09:09:38.460Z,101804.59
2023-01-23T09:12:05.209Z,101805.22
2023-01-23T09:14:31.938Z,101803.59
2023-01-23T09:16:58.641Z,101805.47
2023-01-23T09:19:25.315Z,101803.53
2023-01-23T09:21:56.942Z,101807.22
2023-01-23T09:24:23.877Z,101802.34
2023-01-23T09:26:50.480Z,101797.97
2023-01-23T09:29:17.176Z,101808.78
2023-01-23T09:31:43.826Z,101803.50
2023-01-23T09:34:11.547Z,101795.28
2023-01-23T09:36:43.391Z,101807.06
2023-01-23T09:39:10.465Z,101810.34
2023-01-23T09:41:39.208Z,101812.06
2023-01-23T09:44:10.792Z,101814.50
2023-01-23T09:46:55.459Z,101814.91
2023-01-23T09:49:27.096Z,101814.41
2023-01-23T09:52:02.090Z,101825.28
2023-01-23T09:54:40.349Z,101816.81
2023-01-23T09:57:13.247Z,101828.66
2023-01-23T09:59:53.737Z,101830.84
2023-01-23T10:02:27.121Z,101833.50
2023-01-23T10:04:54.647Z,101831.50
2023-01-23T10:07:27.427Z,101826.59
2023-01-23T10:09:58.607Z,101831.88
2023-01-23T10:12:53.423Z,101833.81
2023-01-23T10:15:28.959Z,101835.34
2023-01-23T10:18:12.252Z,101843.03
2023-01-23T10:20:45.182Z,101841.25
2023-01-23T10:23:35.216Z,101843.03
2023-01-23T10:26:03.034Z,101829.00
2023-01-23T10:28:35.175Z,101833.78
2023-01-23T10:31:05.465Z,101839.94
2023-01-23T10:33:58.842Z,101820.13
2023-01-23T10:36:47.876Z,101834.28
2023-01-23T10:39:22.571Z,101834.19
2023-01-23T10:41:54.277Z,101829.50
2023-01-23T10:44:27.637Z,101825.66
2023-01-23T10:46:56.086Z,101813.78
2023-01-23T10:49:33.188Z,101825.53
2023-01-23T10:51:59.942Z,101824.81
2023-01-23T10:54:32.973Z,101824.81
2023-01-23T10:57:01.753Z,101823.13
2023-01-23T10:59:29.085Z,101822.88
2023-01-23T11:01:58.922Z,101821.19
2023-01-23T11:04:27.652Z,101808.06
2023-01-23T11:07:01.754Z,101815.03
2023-01-23T11:09:28.505Z,101803.25
2023-01-23T11:11:59.598Z,101805.25
2023-01-23T11:14:28.399Z,101800.28
2023-01-23T11:17:13.965Z,101800.56
2023-01-23T11:19:42.136Z,101790.78
2023-01-23T11:22:24.323Z,101792.06
2023-01-23T11:24:51.002Z,101774.66
2023-01-23T11:27:17.616Z,101772.22
2023-01-23T11:30:03.029Z,101773.97
2023-01-23T11:32:33.136Z,101767.19
2023-01-23T11:35:10.909Z,101764.59
2023-01-23T11:37:39.046Z,101755.75
2023-01-23T11:40:07.656Z,101757.16
2023-01-23T11:42:35.782Z,101752.59
2023-01-23T11:45:02.559Z,101742.06
2023-01-23T11:47:48.389Z,101735.75
2023-01-23T11:50:28.035Z,101729.81
2023-01-23T11:53:01.262Z,101739.06
2023-01-23T11:55:34.968Z,101739.38
2023-01-23T11:58:22.663Z,101737.44
2023-01-23T12:04:33.001Z,101721.13
2023-01-23T12:07:03.012Z,101723.78
2023-01-23T12:10:11.495Z,101720.81
2023-01-23T12:12:38.265Z,101722.38
2023-01-23T12:15:07.729Z,101719.03
2023-01-23T12:17:37.503Z,101727.78
2023-01-23T12:20:22.826Z,101715.09
2023-01-23T12:23:08.471Z,101719.16
2023-01-23T12:25:36.560Z,101711.50
2023-01-23T12:28:06.007Z,101710.66
2023-01-23T12:30:51.241Z,101706.75
2023-01-23T12:33:50.221Z,101713.44
2023-01-23T12:36:40.333Z,101701.44
2023-01-23T12:39:16.817Z,101693.75
2023-01-23T12:41:46.695Z,101680.88
2023-01-23T12:44:30.817Z,101675.41
2023-01-23T12:47:13.859Z,101681.53
2023-01-23T12:49:49.163Z,101668.25
2023-01-23T12:52:16.062Z,101678.47
2023-01-23T12:54:43.884Z,101667.81
2023-01-23T12:57:11.363Z,101663.03
2023-01-23T12:59:46.948Z,101659.50
2023-01-23T13:02:19.001Z,101652.03
2023-01-23T13:04:45.671Z,101654.38
2023-01-23T13:07:31.596Z,101653.41
2023-01-23T13:10:11.084Z,101655.66
2023-01-23T13:12:38.152Z,101660.16
2023-01-23T13:15:19.035Z,101657.50
2023-01-23T13:17:52.062Z,101657.19
2023-01-23T13:20:37.111Z,101657.50
2023-01-23T13:23:22.520Z,101646.31
2023-01-23T13:25:49.395Z,101653.00
2023-01-23T13:28:44.649Z,101653.97
2023-01-23T13:31:31.873Z,101644.28
2023-01-23T13:34:10.174Z,101640.75
2023-01-23T13:36:41.307Z,101645.41
2023-01-23T13:39:17.218Z,101643.00
2023-01-23T13:41:44.905Z,101645.16
2023-01-23T13:44:18.080Z,101650.66
2023-01-23T14:24:29.386Z,101628.34
2023-01-23T14:27:07.360Z,101627.06
2023-01-23T14:29:34.497Z,101617.22
2023-01-23T14:32:01.261Z,101629.47
2023-01-23T14:34:28.313Z,101626.00
2023-01-23T14:37:01.423Z,101636.19
2023-01-23T14:39:29.259Z,101630.19
2023-01-23T14:42:00.368Z,101635.22
2023-01-23T14:44:33.515Z,101633.69
2023-01-23T14:47:00.827Z,101638.19
2023-01-23T14:49:29.953Z,101642.38
2023-01-23T14:52:06.943Z,101632.75
2023-01-23T14:54:35.518Z,101637.50
2023-01-23T14:57:04.723Z,101638.50
2023-01-23T14:59:34.278Z,101646.34
2023-01-23T15:02:10.241Z,101656.38
2023-01-23T15:04:43.007Z,101660.41
2023-01-23T15:07:14.976Z,101668.50
2023-01-23T15:09:45.951Z,101658.16
2023-01-23T15:12:16.456Z,101657.56
2023-01-23T15:14:43.495Z,101656.91
2023-01-23T15:17:28.089Z,101664.97
2023-01-23T15:19:55.564Z,101655.78
2023-01-23T15:22:27.129Z,101659.66
2023-01-23T15:24:53.873Z,101658.53
2023-01-23T15:27:24.012Z,101653.63
2023-01-23T15:29:50.725Z,101647.06
2023-01-23T15:32:24.256Z,101650.00
2023-01-23T15:34:54.387Z,101655.16
2023-01-23T15:37:27.953Z,101655.00
2023-01-23T15:39:56.775Z,101646.78
2023-01-23T15:42:25.868Z,101655.28
2023-01-23T15:44:52.570Z,101660.03
2023-01-23T15:47:19.272Z,101661.44
2023-01-23T15:49:45.917Z,101665.91
2023-01-23T15:52:21.081Z,101671.38
2023-01-23T15:54:48.996Z,101665.91
2023-01-23T15:57:15.673Z,101660.75
2023-01-23T15:59:42.456Z,101665.09
2023-01-23T16:02:29.204Z,101667.88
2023-01-23T16:04:57.040Z,101671.50
2023-01-23T16:07:25.245Z,101669.28
2023-01-23T16:09:52.555Z,101669.53
2023-01-23T16:12:19.921Z,101675.69
2023-01-23T16:14:47.159Z,101680.00
2023-01-23T16:17:17.071Z,101670.91
2023-01-23T16:19:44.134Z,101680.59
2023-01-23T16:22:12.810Z,101680.44
2023-01-23T16:24:40.860Z,101679.06
2023-01-23T16:27:10.316Z,101686.34
2023-01-23T16:29:36.985Z,101690.75
2023-01-23T16:32:04.081Z,101694.00
2023-01-23T16:34:30.970Z,101705.59
2023-01-23T16:36:59.175Z,101700.28
2023-01-23T16:39:27.133Z,101708.53
2023-01-23T16:41:56.835Z,101715.25
2023-01-23T16:44:26.609Z,101714.41
2023-01-23T16:46:53.791Z,101715.94
2023-01-23T16:49:20.951Z,101718.19
2023-01-23T16:51:49.691Z,101723.09
2023-01-23T16:54:19.084Z,101725.16
2023-01-23T16:56:47.965Z,101715.53
2023-01-23T16:59:16.911Z,101727.53
2023-01-23T17:01:45.446Z,101725.75
2023-01-23T17:04:14.112Z,101724.88
2023-01-23T17:06:40.820Z,101731.03
2023-01-23T17:09:07.488Z,101734.66
2023-01-23T17:11:36.480Z,101739.81
2023-01-23T17:14:06.808Z,101736.50
2023-01-23T17:16:33.578Z,101739.97
2023-01-23T17:19:04.587Z,101749.19
2023-01-23T17:21:33.407Z,101746.53
2023-01-23T17:24:00.246Z,101759.78
2023-01-23T17:26:26.958Z,101760.34
2023-01-23T17:28:53.725Z,101758.66
2023-01-23T17:31:23.296Z,101766.63
2023-01-23T17:33:50.343Z,101761.47
2023-01-23T17:36:17.233Z,101770.38
2023-01-23T17:38:43.851Z,101769.56
2023-01-23T17:41:17.050Z,101775.97
2023-01-23T17:43:44.758Z,101776.66
2023-01-23T17:46:18.121Z,101777.50
2023-01-23T17:48:44.765Z,101779.44
2023-01-23T17:51:15.961Z,101778.47
2023-01-23T17:53:43.006Z,101785.56
2023-01-23T17:56:10.088Z,101780.41
2023-01-23T17:58:36.752Z,101788.50
2023-01-23T18:01:03.496Z,101784.75
2023-01-23T18:03:30.248Z,101781.13
2023-01-23T18:05:56.849Z,101792.56
2023-01-23T18:08:23.576Z,101784.91
2023-01-23T18:10:55.240Z,101791.47
2023-01-23T18:13:24.921Z,101785.47
2023-01-23T18:16:00.639Z,101794.25
2023-01-23T18:18:31.720Z,101797.72
2023-01-23T18:20:59.487Z,101796.75
2023-01-23T18:23:27.440Z,101798.72
2023-01-23T18:26:09.050Z,101803.03
2023-01-23T18:28:41.669Z,101796.06
2023-01-23T18:31:14.173Z,101800.38
2023-01-23T18:33:43.759Z,101804.03
2023-01-23T18:36:13.475Z,101797.59
2023-01-23T18:39:06.639Z,101799.56
2023-01-23T18:41:33.515Z,101798.72
2023-01-23T18:44:09.772Z,101793.28
2023-01-23T18:46:36.752Z,101798.44
2023-01-23T18:49:04.646Z,101793.97
2023-01-23T18:51:37.900Z,101805.53
2023-01-23T18:54:19.042Z,101801.22
2023-01-23T18:57:04.879Z,101808.31
2023-01-23T18:59:50.296Z,101814.75
2023-01-23T19:02:19.844Z,101824.22
2023-01-23T19:04:52.359Z,101822.31
2023-01-23T19:07:19.480Z,101816.28
2023-01-23T19:09:46.922Z,101827.31
2023-01-23T19:12:25.322Z,101825.63
2023-01-23T19:14:55.202Z,101831.94
2023-01-23T19:17:40.373Z,101828.28
2023-01-23T19:20:22.281Z,101839.03
2023-01-23T19:23:01.823Z,101839.31
2023-01-23T19:25:28.646Z,101850.56
2023-01-23T19:27:56.766Z,101862.69
2023-01-23T19:30:25.417Z,101868.56
2023-01-23T19:32:52.387Z,101870.31
2023-01-23T19:35:19.157Z,101868.22
2023-01-23T19:37:46.103Z,101874.97
2023-01-23T19:40:14.110Z,101887.69
2023-01-23T19:42:52.280Z,101884.59
2023-01-23T19:45:25.406Z,101882.72
2023-01-23T19:47:53.462Z,101888.72
2023-01-23T19:50:20.825Z,101879.47
2023-01-23T19:52:48.819Z,101886.13
2023-01-23T19:55:21.716Z,101886.06
2023-01-23T19:57:48.815Z,101873.28
2023-01-23T20:00:15.928Z,101877.16
2023-01-23T20:02:42.788Z,101880.34
2023-01-23T20:05:10.150Z,101879.69
2023-01-23T20:07:36.835Z,101887.38
2023-01-23T20:10:03.852Z,101886.72
2023-01-23T20:12:30.624Z,101892.06
2023-01-23T20:14:57.406Z,101896.06
2023-01-23T20:17:24.140Z,101907.38
2023-01-23T20:19:50.902Z,101917.34
2023-01-23T20:22:19.203Z,101920.72
2023-01-23T20:24:45.795Z,101913.81
2023-01-23T20:27:12.496Z,101918.88
2023-01-23T20:29:39.136Z,101920.56
2023-01-23T20:32:05.909Z,101926.34
2023-01-23T20:34:34.100Z,101925.59
2023-01-23T20:37:00.812Z,101929.13
2023-01-23T20:39:27.463Z,101936.59
2023-01-23T20:41:54.151Z,101940.97
2023-01-23T20:44:20.820Z,101950.94
2023-01-23T20:46:47.520Z,101952.28
2023-01-23T20:49:15.119Z,101947.19
2023-01-23T20:51:41.925Z,101945.53
2023-01-23T20:54:08.585Z,101944.22
2023-01-23T20:56:35.638Z,101942.78
2023-01-23T20:59:21.566Z,101941.22
2023-01-23T21:02:06.736Z,101941.97
2023-01-23T21:04:35.272Z,101939.69
2023-01-23T21:07:02.111Z,101944.84
2023-01-23T21:09:28.969Z,101947.13
2023-01-23T21:12:04.062Z,101958.16
2023-01-23T21:14:31.729Z,101952.06
2023-01-23T21:16:58.549Z,101952.41
2023-01-23T21:19:25.219Z,101964.53
2023-01-23T21:21:52.053Z,101958.41
2023-01-23T21:24:18.889Z,101959.75
2023-01-23T21:26:45.570Z,101966.91
2023-01-23T21:29:12.418Z,101964.31
2023-01-23T21:31:39.400Z,101958.06
2023-01-23T21:34:08.157Z,101965.13
2023-01-23T21:36:34.973Z,101954.47
2023-01-23T21:39:05.435Z,101956.38
2023-01-23T21:41:32.251Z,101956.72
2023-01-23T21:43:58.954Z,101958.75
2023-01-23T21:46:25.947Z,101950.22
2023-01-23T21:48:52.642Z,101959.84
2023-01-23T21:51:20.627Z,101955.41
2023-01-23T21:53:47.881Z,101960.34
2023-01-23T21:56:16.058Z,101959.84
2023-01-23T21:58:43.021Z,101970.66
2023-01-23T22:01:32.705Z,101973.31
2023-01-23T22:04:00.613Z,101969.47
2023-01-23T22:06:27.480Z,101978.22
2023-01-23T22:09:02.442Z,101975.22
2023-01-23T22:11:29.267Z,101975.81
2023-01-23T22:13:56.023Z,101978.91
2023-01-23T22:16:45.308Z,101983.25
2023-01-23T22:19:17.765Z,101994.25
2023-01-23T22:21:55.434Z,101988.00
2023-01-23T22:24:30.330Z,101987.75
2023-01-23T22:27:00.135Z,101991.09
2023-01-23T22:29:28.747Z,101989.31
2023-01-23T22:31:55.511Z,101986.66
2023-01-23T22:37:23.307Z,101971.22
2023-01-23T22:39:50.043Z,101971.41
2023-01-23T22:42:19.058Z,101962.16
2023-01-23T22:44:45.777Z,101967.56
2023-01-23T22:47:12.601Z,101963.41
2023-01-23T22:49:39.216Z,101966.88
2023-01-23T22:52:07.472Z,101958.28
2023-01-23T22:54:38.813Z,101955.03
2023-01-23T22:57:05.569Z,101962.38
2023-01-23T22:59:34.518Z,101967.53
2023-01-23T23:02:01.269Z,101976.13
2023-01-23T23:04:28.004Z,101988.38
2023-01-23T23:06:54.819Z,101988.78
2023-01-23T23:09:21.443Z,101988.72
2023-01-23T23:11:50.123Z,101984.91
2023-01-23T23:14:16.784Z,101975.88
2023-01-23T23:16:43.617Z,101986.50
2023-01-23T23:19:10.687Z,101988.78
2023-01-23T23:21:37.884Z,101992.28
2023-01-23T23:24:05.897Z,101995.03
2023-01-23T23:26:32.723Z,101990.66
2023-01-23T23:29:00.178Z,101987.56
2023-01-23T23:31:26.968Z,101986.66
2023-01-23T23:33:53.916Z,101996.03
2023-01-23T23:36:20.725Z,101993.13
2023-01-23T23:38:47.457Z,101992.19
2023-01-23T23:41:15.124Z,102003.66
2023-01-23T23:43:42.608Z,101998.44
2023-01-23T23:46:10.334Z,101995.06
2023-01-23T23:48:37.692Z,102008.78
2023-01-23T23:51:09.340Z,102002.53
2023-01-23T23:53:36.133Z,102002.44
2023-01-23T23:56:02.966Z,102015.44
2023-01-23T23:58:29.673Z,102001.50
